createdAt,value
2023-08-05T00:00:21.830Z,55.11
2023-08-05T00:02:52.670Z,55.12
2023-08-05T00:05:23.501Z,55.13
2023-08-05T00:07:54.359Z,55.17
2023-08-05T00:10:25.330Z,55.21
2023-08-05T00:12:56.296Z,55.21
2023-08-05T00:15:27.457Z,55.22
2023-08-05T00:17:58.331Z,55.26
2023-08-05T00:20:29.320Z,55.27
2023-08-05T00:23:00.179Z,55.29
2023-08-05T00:25:30.978Z,55.30
2023-08-05T00:28:01.829Z,55.30
2023-08-05T00:30:32.692Z,55.37
2023-08-05T00:33:03.588Z,55.38
2023-08-05T00:35:34.385Z,55.37
2023-08-05T00:38:05.194Z,55.41
2023-08-05T00:40:36.017Z,55.42
2023-08-05T00:43:06.855Z,55.46
2023-08-05T00:45:37.745Z,55.49
2023-08-05T00:48:08.658Z,55.49
2023-08-05T00:50:39.786Z,55.50
2023-08-05T00:53:10.601Z,55.51
2023-08-05T00:55:42.084Z,55.52
2023-08-05T00:58:12.911Z,55.56
2023-08-05T01:00:43.737Z,55.59
2023-08-05T01:03:14.759Z,55.60
2023-08-05T01:05:45.610Z,55.63
2023-08-05T01:08:16.403Z,55.65
2023-08-05T01:10:47.235Z,55.64
2023-08-05T01:13:18.046Z,55.69
2023-08-05T01:15:48.902Z,55.70
2023-08-05T01:18:19.941Z,55.71
2023-08-05T01:20:51.522Z,55.71
2023-08-05T01:23:34.418Z,55.78
2023-08-05T01:26:05.293Z,55.80
2023-08-05T01:28:36.100Z,55.80
2023-08-05T01:31:06.989Z,55.84
2023-08-05T01:33:37.859Z,55.86
2023-08-05T01:36:08.654Z,55.88
2023-08-05T01:38:41.813Z,55.89
2023-08-05T01:41:12.611Z,55.91
2023-08-05T01:43:43.475Z,55.91
2023-08-05T01:46:14.320Z,55.93
2023-08-05T01:48:45.229Z,55.96
2023-08-05T01:51:16.134Z,55.98
2023-08-05T01:53:46.954Z,56.00
2023-08-05T01:56:17.757Z,56.00
2023-08-05T01:58:48.601Z,56.00
2023-08-05T02:01:19.487Z,56.00
2023-08-05T02:03:50.770Z,56.00
2023-08-05T02:06:21.676Z,55.96
2023-08-05T02:08:52.688Z,55.98
2023-08-05T02:11:23.517Z,56.00
2023-08-05T02:13:54.298Z,56.01
2023-08-05T02:16:25.201Z,56.07
2023-08-05T02:18:56.712Z,56.09
2023-08-05T02:21:27.609Z,56.08
2023-08-05T02:23:58.529Z,56.10
2023-08-05T02:26:29.402Z,56.10
2023-08-05T02:29:00.242Z,56.11
2023-08-05T02:31:31.099Z,56.17
2023-08-05T02:34:01.948Z,56.19
2023-08-05T02:36:32.772Z,56.20
2023-08-05T02:39:03.638Z,56.21
2023-08-05T02:41:34.448Z,56.21
2023-08-05T02:44:05.291Z,56.30
2023-08-05T02:46:36.190Z,56.29
2023-08-05T02:49:09.169Z,56.28
2023-08-05T02:51:40.096Z,56.30
2023-08-05T02:54:10.959Z,56.30
2023-08-05T02:56:41.804Z,56.30
2023-08-05T02:59:13.024Z,56.30
2023-08-05T03:01:43.911Z,56.33
2023-08-05T03:04:14.810Z,56.33
2023-08-05T03:06:45.702Z,56.31
2023-08-05T03:09:16.539Z,56.32
2023-08-05T03:11:48.202Z,56.34
2023-08-05T03:14:19.034Z,56.30
2023-08-05T03:16:50.130Z,56.29
2023-08-05T03:19:23.710Z,56.30
2023-08-05T03:21:54.866Z,56.30
2023-08-05T03:24:25.794Z,56.30
2023-08-05T03:26:57.002Z,56.30
2023-08-05T03:29:27.911Z,56.29
2023-08-05T03:31:58.969Z,56.26
2023-08-05T03:34:30.509Z,56.23
2023-08-05T03:37:01.922Z,56.20
2023-08-05T03:39:33.116Z,56.21
2023-08-05T03:42:03.988Z,56.18
2023-08-05T03:44:34.962Z,56.14
2023-08-05T03:47:05.895Z,56.12
2023-08-05T03:49:38.600Z,56.10
2023-08-05T03:52:09.629Z,56.10
2023-08-05T03:54:40.508Z,56.10
2023-08-05T03:57:11.301Z,56.10
2023-08-05T03:59:43.474Z,56.10
2023-08-05T04:02:15.043Z,56.10
2023-08-05T04:04:46.795Z,56.08
2023-08-05T04:07:20.086Z,56.10
2023-08-05T04:09:52.980Z,56.09
2023-08-05T04:12:23.803Z,56.10
2023-08-05T04:14:59.198Z,56.08
2023-08-05T04:17:30.643Z,56.10
2023-08-05T04:20:01.555Z,56.09
2023-08-05T04:22:32.425Z,56.10
2023-08-05T04:25:03.402Z,56.10
2023-08-05T04:27:34.267Z,56.10
2023-08-05T04:30:06.868Z,56.10
2023-08-05T04:32:37.943Z,56.10
2023-08-05T04:35:08.989Z,56.09
2023-08-05T04:37:39.871Z,56.08
2023-08-05T04:40:11.032Z,56.05
2023-08-05T04:42:41.938Z,56.04
2023-08-05T04:45:12.770Z,56.03
2023-08-05T04:47:43.629Z,56.00
2023-08-05T04:50:14.539Z,56.00
2023-08-05T04:52:46.536Z,55.99
2023-08-05T04:55:17.394Z,55.96
2023-08-05T04:57:51.825Z,55.97
2023-08-05T05:00:22.779Z,55.95
2023-08-05T05:02:54.069Z,55.96
2023-08-05T05:05:25.681Z,55.96
2023-08-05T05:07:56.558Z,55.94
2023-08-05T05:10:27.384Z,55.91
2023-08-05T05:12:58.765Z,55.91
2023-08-05T05:15:29.890Z,55.90
2023-08-05T05:18:00.697Z,55.90
2023-08-05T05:20:31.546Z,55.90
2023-08-05T05:23:02.340Z,55.90
2023-08-05T05:25:33.129Z,55.90
2023-08-05T05:28:04.041Z,55.90
2023-08-05T05:30:35.214Z,55.90
2023-08-05T05:33:06.140Z,55.89
2023-08-05T05:35:36.971Z,55.89
2023-08-05T05:38:07.793Z,55.90
2023-08-05T05:40:41.695Z,55.90
2023-08-05T05:43:12.585Z,55.90
2023-08-05T05:45:45.579Z,55.93
2023-08-05T05:48:16.885Z,55.94
2023-08-05T05:50:49.409Z,55.99
2023-08-05T05:53:20.252Z,56.00
2023-08-05T05:55:54.093Z,56.02
2023-08-05T05:58:24.957Z,56.06
2023-08-05T06:00:56.106Z,56.10
2023-08-05T06:03:27.215Z,56.13
2023-08-05T06:05:59.023Z,56.20
2023-08-05T06:08:30.095Z,56.20
2023-08-05T06:11:01.519Z,56.21
2023-08-05T06:13:32.409Z,56.24
2023-08-05T06:16:03.540Z,56.29
2023-08-05T06:18:34.383Z,56.32
2023-08-05T06:21:05.172Z,56.39
2023-08-05T06:23:35.981Z,56.40
2023-08-05T06:26:06.832Z,56.35
2023-08-05T06:28:37.631Z,56.36
2023-08-05T06:31:08.531Z,56.33
2023-08-05T06:33:39.351Z,56.46
2023-08-05T06:36:10.233Z,56.50
2023-08-05T06:38:41.070Z,56.59
2023-08-05T06:41:11.899Z,56.56
2023-08-05T06:43:42.703Z,56.56
2023-08-05T06:46:13.524Z,56.55
2023-08-05T06:48:44.400Z,56.53
2023-08-05T06:51:15.250Z,56.54
2023-08-05T06:53:46.115Z,56.52
2023-08-05T06:56:17.012Z,56.50
2023-08-05T06:58:48.514Z,56.52
2023-08-05T07:01:19.415Z,56.53
2023-08-05T07:03:50.287Z,56.56
2023-08-05T07:06:21.099Z,56.54
2023-08-05T07:08:52.114Z,56.60
2023-08-05T07:11:22.948Z,56.66
2023-08-05T07:13:53.778Z,56.75
2023-08-05T07:16:24.628Z,56.84
2023-08-05T07:18:55.484Z,56.95
2023-08-05T07:21:26.290Z,57.03
2023-08-05T07:23:57.088Z,57.13
2023-08-05T07:26:27.870Z,57.23
2023-08-05T07:28:58.808Z,57.30
2023-08-05T07:31:29.648Z,57.34
2023-08-05T07:34:00.952Z,57.40
2023-08-05T07:36:31.798Z,57.40
2023-08-05T07:39:07.009Z,57.48
2023-08-05T07:41:37.894Z,57.51
2023-08-05T07:44:10.242Z,57.58
2023-08-05T07:46:42.288Z,57.60
2023-08-05T07:49:13.511Z,57.61
2023-08-05T07:51:48.009Z,57.63
2023-08-05T07:54:18.864Z,57.68
2023-08-05T07:56:49.678Z,57.68
2023-08-05T07:59:20.778Z,57.69
2023-08-05T08:01:54.049Z,57.67
2023-08-05T08:04:25.323Z,57.66
2023-08-05T08:06:56.128Z,57.70
2023-08-05T08:09:27.425Z,57.68
2023-08-05T08:11:58.252Z,57.79
2023-08-05T08:14:29.261Z,58.02
2023-08-05T08:17:00.213Z,58.35
2023-08-05T08:19:31.127Z,58.35
2023-08-05T08:22:01.951Z,58.52
2023-08-05T08:24:32.799Z,58.76
2023-08-05T08:27:03.683Z,58.82
2023-08-05T08:29:34.534Z,58.80
2023-08-05T08:32:05.551Z,58.70
2023-08-05T08:34:36.386Z,58.62
2023-08-05T08:37:07.249Z,58.57
2023-08-05T08:39:38.083Z,58.55
2023-08-05T08:42:08.960Z,58.52
2023-08-05T08:44:39.808Z,58.51
2023-08-05T08:47:10.652Z,58.48
2023-08-05T08:49:41.527Z,58.50
2023-08-05T08:52:13.444Z,58.48
2023-08-05T08:54:44.648Z,58.50
2023-08-05T08:57:16.315Z,58.50
2023-08-05T08:59:47.801Z,58.52
2023-08-05T09:02:22.207Z,58.54
2023-08-05T09:04:53.991Z,58.54
2023-08-05T09:07:27.849Z,58.54
2023-08-05T09:10:03.415Z,58.50
2023-08-05T09:12:34.689Z,58.51
2023-08-05T09:15:05.707Z,58.51
2023-08-05T09:17:37.561Z,58.49
2023-08-05T09:20:17.275Z,58.49
2023-08-05T09:22:56.672Z,58.50
2023-08-05T09:25:29.552Z,58.59
2023-08-05T09:28:05.292Z,58.68
2023-08-05T09:30:36.203Z,58.75
2023-08-05T09:33:07.215Z,58.83
2023-08-05T09:35:38.115Z,58.82
2023-08-05T09:38:11.190Z,58.87
2023-08-05T09:40:46.356Z,58.90
2023-08-05T09:43:18.909Z,58.93
2023-08-05T09:45:50.389Z,58.92
2023-08-05T09:48:23.577Z,58.97
2023-08-05T09:50:54.411Z,59.00
2023-08-05T09:53:25.641Z,58.89
2023-08-05T09:55:56.514Z,58.78
2023-08-05T09:58:27.712Z,58.69
2023-08-05T10:00:58.954Z,58.61
2023-08-05T10:03:30.138Z,58.64
2023-08-05T10:06:01.363Z,58.58
2023-08-05T10:08:37.130Z,58.46
2023-08-05T10:11:08.463Z,58.24
2023-08-05T10:13:40.324Z,57.72
2023-08-05T10:16:11.263Z,57.24
2023-08-05T10:18:42.169Z,56.96
2023-08-05T10:21:14.068Z,56.91
2023-08-05T10:23:45.364Z,57.01
2023-08-05T10:26:16.216Z,57.66
2023-08-05T10:28:47.685Z,58.72
2023-08-05T10:31:26.605Z,59.07
2023-08-05T10:34:14.237Z,59.08
2023-08-05T10:36:46.942Z,59.23
2023-08-05T10:39:37.565Z,59.35
2023-08-05T10:42:27.397Z,59.81
2023-08-05T10:44:59.875Z,60.61
2023-08-05T10:47:30.920Z,61.06
2023-08-05T10:50:03.236Z,61.22
2023-08-05T10:52:36.585Z,61.17
2023-08-05T10:55:13.341Z,60.97
2023-08-05T10:57:46.068Z,61.29
2023-08-05T11:00:18.629Z,61.55
2023-08-05T11:02:51.680Z,61.70
2023-08-05T11:05:23.772Z,61.44
2023-08-05T11:07:57.369Z,61.28
2023-08-05T11:10:30.878Z,61.73
2023-08-05T11:13:02.625Z,61.89
2023-08-05T11:15:33.699Z,62.18
2023-08-05T11:18:05.959Z,62.10
2023-08-05T11:20:37.507Z,62.17
2023-08-05T11:23:30.327Z,62.13
2023-08-05T11:26:22.917Z,61.74
2023-08-05T11:32:26.850Z,61.61
2023-08-05T11:35:22.267Z,61.64
2023-08-05T11:38:20.933Z,61.68
2023-08-05T11:40:57.656Z,62.15
2023-08-05T11:43:37.360Z,62.31
2023-08-05T11:46:30.012Z,62.18
2023-08-05T11:49:18.734Z,62.23
2023-08-05T11:52:14.392Z,62.62
2023-08-05T11:54:48.731Z,62.89
2023-08-05T11:57:35.308Z,63.06
2023-08-05T12:00:12.543Z,63.29
2023-08-05T12:03:06.212Z,63.59
2023-08-05T12:05:43.663Z,63.64
2023-08-05T12:08:41.042Z,63.12
2023-08-05T12:11:17.172Z,62.97
2023-08-05T12:14:29.000Z,63.13
2023-08-05T12:17:13.182Z,63.15
2023-08-05T12:20:06.222Z,63.32
2023-08-05T12:23:12.978Z,63.31
2023-08-05T12:26:10.714Z,63.37
2023-08-05T12:29:20.350Z,63.40
2023-08-05T12:31:52.307Z,63.47
2023-08-05T12:34:24.808Z,63.60
2023-08-05T12:37:25.201Z,63.59
2023-08-05T12:40:10.112Z,63.97
2023-08-05T12:42:45.699Z,64.31
2023-08-05T12:45:18.484Z,64.41
2023-08-05T12:48:15.627Z,64.58
2023-08-05T12:50:52.728Z,64.71
2023-08-05T12:53:24.771Z,64.64
2023-08-05T12:55:57.062Z,65.00
2023-08-05T12:58:28.501Z,64.72
2023-08-05T13:01:08.555Z,64.76
2023-08-05T13:04:20.003Z,65.10
2023-08-05T13:06:52.442Z,65.03
2023-08-05T13:09:24.690Z,64.84
2023-08-05T13:11:57.993Z,64.95
2023-08-05T13:14:32.116Z,65.04
2023-08-05T13:17:06.033Z,65.21
2023-08-05T13:19:43.787Z,65.23
2023-08-05T13:22:37.638Z,65.01
2023-08-05T13:25:29.281Z,65.12
2023-08-05T13:28:18.947Z,65.31
2023-08-05T13:30:51.508Z,65.61
2023-08-05T13:33:24.219Z,65.75
2023-08-05T13:35:57.351Z,65.30
2023-08-05T13:39:02.315Z,65.49
2023-08-05T13:41:38.185Z,65.34
2023-08-05T13:44:18.595Z,65.36
2023-08-05T13:46:52.204Z,65.48
2023-08-05T13:49:25.845Z,65.41
2023-08-05T13:52:41.016Z,65.58
2023-08-05T13:55:19.622Z,65.51
2023-08-05T13:57:55.799Z,65.46
2023-08-05T14:00:44.875Z,65.38
2023-08-05T14:03:17.686Z,65.49
2023-08-05T14:06:23.202Z,65.40
2023-08-05T14:09:24.849Z,65.69
2023-08-05T14:12:42.532Z,65.74
2023-08-05T14:15:42.499Z,65.83
2023-08-05T14:18:27.667Z,65.83
2023-08-05T14:21:09.667Z,65.67
2023-08-05T14:23:42.437Z,65.71
2023-08-05T14:26:25.048Z,65.45
2023-08-05T14:28:57.479Z,65.36
2023-08-05T14:31:29.297Z,65.21
2023-08-05T14:34:04.470Z,65.02
2023-08-05T14:36:39.598Z,64.93
2023-08-05T14:39:12.973Z,65.23
2023-08-05T14:41:45.728Z,65.48
2023-08-05T14:44:18.440Z,65.92
2023-08-05T14:46:49.406Z,66.12
2023-08-05T14:49:21.177Z,66.09
2023-08-05T14:51:52.570Z,66.21
2023-08-05T14:54:25.923Z,66.32
2023-08-05T14:57:01.599Z,66.55
2023-08-05T14:59:34.004Z,66.50
2023-08-05T15:02:06.032Z,66.67
2023-08-05T15:04:38.474Z,66.85
2023-08-05T15:07:19.042Z,66.70
2023-08-05T15:09:53.701Z,66.70
2023-08-05T15:12:26.335Z,66.87
2023-08-05T15:14:58.281Z,67.12
2023-08-05T15:17:46.409Z,67.29
2023-08-05T15:20:23.847Z,67.08
2023-08-05T15:22:58.556Z,67.25
2023-08-05T15:25:47.346Z,67.41
2023-08-05T15:28:20.274Z,67.39
2023-08-05T15:30:55.758Z,67.13
2023-08-05T15:33:27.806Z,67.15
2023-08-05T15:36:06.449Z,67.13
2023-08-05T15:38:59.053Z,67.28
2023-08-05T15:41:39.530Z,67.06
2023-08-05T15:44:11.913Z,67.01
2023-08-05T15:46:44.754Z,67.04
2023-08-05T15:49:18.509Z,66.96
2023-08-05T15:51:51.959Z,67.10
2023-08-05T15:54:24.173Z,67.05
2023-08-05T15:56:58.232Z,67.18
2023-08-05T15:59:31.595Z,66.91
2023-08-05T16:02:05.616Z,66.77
2023-08-05T16:04:41.167Z,66.79
2023-08-05T16:07:14.437Z,66.87
2023-08-05T16:09:46.537Z,66.85
2023-08-05T16:12:19.384Z,66.90
2023-08-05T16:14:53.328Z,66.76
2023-08-05T16:17:25.205Z,66.74
2023-08-05T16:19:57.749Z,66.92
2023-08-05T16:22:31.262Z,66.94
2023-08-05T16:25:04.684Z,66.84
2023-08-05T16:27:41.842Z,66.99
2023-08-05T16:30:13.254Z,67.11
2023-08-05T16:32:47.032Z,67.23
2023-08-05T16:35:20.288Z,67.18
2023-08-05T16:37:54.133Z,67.19
2023-08-05T16:40:27.530Z,67.27
2023-08-05T16:43:22.294Z,67.27
2023-08-05T16:45:55.998Z,67.13
2023-08-05T16:48:28.461Z,67.07
2023-08-05T16:51:00.277Z,66.91
2023-08-05T16:53:34.268Z,66.81
2023-08-05T16:56:10.128Z,66.89
2023-08-05T16:58:48.031Z,66.87
2023-08-05T17:01:21.942Z,67.01
2023-08-05T17:03:53.447Z,66.97
2023-08-05T17:06:25.982Z,66.81
2023-08-05T17:08:57.774Z,66.75
2023-08-05T17:11:30.166Z,66.74
2023-08-05T17:14:01.525Z,66.76
2023-08-05T17:16:33.515Z,67.02
2023-08-05T17:19:05.246Z,66.97
2023-08-05T17:21:38.827Z,67.01
2023-08-05T17:24:11.220Z,67.03
2023-08-05T17:26:44.934Z,67.03
2023-08-05T17:29:15.972Z,67.13
2023-08-05T17:31:46.959Z,67.21
2023-08-05T17:34:18.665Z,67.25
2023-08-05T17:36:50.470Z,67.20
2023-08-05T17:39:21.945Z,66.99
2023-08-05T17:41:54.860Z,66.81
2023-08-05T17:44:27.166Z,66.75
2023-08-05T17:46:58.985Z,66.62
2023-08-05T17:49:31.493Z,66.53
2023-08-05T17:52:03.290Z,66.58
2023-08-05T17:54:34.913Z,66.45
2023-08-05T17:57:05.985Z,66.39
2023-08-05T17:59:38.182Z,66.42
2023-08-05T18:02:09.978Z,66.41
2023-08-05T18:04:42.131Z,66.33
2023-08-05T18:07:14.093Z,66.30
2023-08-05T18:09:46.482Z,66.28
2023-08-05T18:12:17.553Z,66.25
2023-08-05T18:14:49.170Z,66.20
2023-08-05T18:17:19.997Z,66.25
2023-08-05T18:19:53.925Z,66.22
2023-08-05T18:22:26.292Z,66.20
2023-08-05T18:24:57.336Z,66.20
2023-08-05T18:27:28.925Z,66.26
2023-08-05T18:30:00.738Z,66.22
2023-08-05T18:32:31.724Z,66.22
2023-08-05T18:35:03.676Z,66.10
2023-08-05T18:37:34.684Z,66.03
2023-08-05T18:40:07.893Z,65.92
2023-08-05T18:42:39.232Z,65.78
2023-08-05T18:45:11.097Z,65.69
2023-08-05T18:47:42.918Z,65.69
2023-08-05T18:50:13.996Z,65.58
2023-08-05T18:52:46.166Z,65.43
2023-08-05T18:55:17.875Z,65.40
2023-08-05T18:57:48.769Z,65.33
2023-08-05T19:00:19.991Z,65.27
2023-08-05T19:02:50.947Z,65.18
2023-08-05T19:05:22.200Z,65.12
2023-08-05T19:07:53.121Z,65.02
2023-08-05T19:10:25.202Z,64.96
2023-08-05T19:12:56.797Z,64.93
2023-08-05T19:15:28.022Z,64.94
2023-08-05T19:18:00.221Z,64.89
2023-08-05T19:20:35.743Z,64.92
2023-08-05T19:23:08.129Z,64.95
2023-08-05T19:25:40.074Z,65.01
2023-08-05T19:28:11.416Z,65.02
2023-08-05T19:30:45.436Z,65.03
2023-08-05T19:33:16.679Z,65.08
2023-08-05T19:35:47.633Z,65.11
2023-08-05T19:38:19.312Z,65.12
2023-08-05T19:40:58.827Z,65.17
2023-08-05T19:43:30.531Z,65.20
2023-08-05T19:46:04.735Z,65.25
2023-08-05T19:48:35.903Z,65.30
2023-08-05T19:53:42.909Z,65.35
2023-08-05T19:56:13.856Z,65.36
2023-08-05T19:58:44.766Z,65.38
2023-08-05T20:01:15.798Z,65.39
2023-08-05T20:03:46.713Z,65.40
2023-08-05T20:06:17.621Z,65.40
2023-08-05T20:08:48.547Z,65.40
2023-08-05T20:11:20.439Z,65.42
2023-08-05T20:13:51.344Z,65.50
2023-08-05T20:16:22.417Z,65.50
2023-08-05T20:18:53.305Z,65.56
2023-08-05T20:21:24.224Z,65.60
2023-08-05T20:23:56.262Z,65.60
2023-08-05T20:26:27.252Z,65.67
2023-08-05T20:28:58.157Z,65.69
2023-08-05T20:31:29.148Z,65.69
2023-08-05T20:33:59.985Z,65.69
2023-08-05T20:36:31.608Z,65.70
2023-08-05T20:39:03.275Z,65.81
2023-08-05T20:41:35.525Z,66.13
2023-08-05T20:44:06.452Z,66.38
2023-08-05T20:46:37.438Z,66.55
2023-08-05T20:49:09.574Z,66.63
2023-08-05T20:51:42.269Z,66.71
2023-08-05T20:54:13.940Z,66.81
2023-08-05T20:56:44.776Z,66.73
2023-08-05T20:59:16.893Z,66.52
2023-08-05T21:01:53.866Z,66.39
2023-08-05T21:04:25.080Z,66.27
2023-08-05T21:06:56.636Z,66.13
2023-08-05T21:09:27.555Z,66.07
2023-08-05T21:11:59.246Z,66.00
2023-08-05T21:14:30.490Z,65.90
2023-08-05T21:17:02.356Z,65.79
2023-08-05T21:19:34.093Z,65.75
2023-08-05T21:22:06.792Z,65.70
2023-08-05T21:24:38.267Z,65.62
2023-08-05T21:27:09.525Z,65.60
2023-08-05T21:29:40.489Z,65.52
2023-08-05T21:32:13.216Z,65.48
2023-08-05T21:34:45.571Z,65.43
2023-08-05T21:37:17.245Z,65.43
2023-08-05T21:39:52.851Z,65.40
2023-08-05T21:42:24.127Z,65.40
2023-08-05T21:44:56.041Z,65.42
2023-08-05T21:47:26.979Z,65.43
2023-08-05T21:50:00.256Z,65.42
2023-08-05T21:52:33.858Z,65.49
2023-08-05T21:55:05.244Z,65.50
2023-08-05T21:57:36.152Z,65.52
2023-08-05T22:00:12.768Z,65.53
2023-08-05T22:02:44.522Z,65.63
2023-08-05T22:05:16.143Z,65.69
2023-08-05T22:07:47.752Z,65.72
2023-08-05T22:10:18.646Z,65.79
2023-08-05T22:12:50.766Z,65.80
2023-08-05T22:15:22.123Z,65.83
2023-08-05T22:17:53.190Z,65.89
2023-08-05T22:20:24.227Z,65.92
2023-08-05T22:22:55.163Z,66.00
2023-08-05T22:25:26.102Z,66.07
2023-08-05T22:27:56.985Z,66.11
2023-08-05T22:30:27.836Z,66.11
2023-08-05T22:32:58.749Z,66.16
2023-08-05T22:35:29.721Z,66.19
2023-08-05T22:38:03.018Z,66.22
2023-08-05T22:40:37.323Z,66.30
2023-08-05T22:43:09.267Z,66.33
2023-08-05T22:45:40.305Z,66.38
2023-08-05T22:48:11.329Z,66.40
2023-08-05T22:50:43.225Z,66.45
2023-08-05T22:53:14.924Z,66.43
2023-08-05T22:55:49.441Z,66.50
2023-08-05T22:58:21.878Z,66.51
2023-08-05T23:01:00.748Z,66.57
2023-08-05T23:03:31.765Z,66.60
2023-08-05T23:06:02.795Z,66.67
2023-08-05T23:08:34.479Z,66.70
2023-08-05T23:11:06.137Z,66.75
2023-08-05T23:13:37.572Z,66.78
2023-08-05T23:16:17.501Z,66.77
2023-08-05T23:18:49.019Z,66.79
2023-08-05T23:21:20.419Z,66.70
2023-08-05T23:23:52.215Z,66.65
2023-08-05T23:26:23.992Z,66.54
2023-08-05T23:28:59.482Z,66.50
2023-08-05T23:31:30.467Z,66.41
2023-08-05T23:34:02.798Z,66.38
2023-08-05T23:36:34.036Z,66.33
2023-08-05T23:39:05.820Z,66.29
2023-08-05T23:41:37.590Z,66.26
2023-08-05T23:44:08.913Z,66.19
2023-08-05T23:46:40.680Z,66.21
2023-08-05T23:49:13.279Z,66.23
2023-08-05T23:51:44.594Z,66.15
2023-08-05T23:54:16.571Z,66.09
2023-08-05T23:56:48.281Z,66.08
2023-08-05T23:59:19.168Z,66.01
